createdAt,value
2022-12-27T00:02:40.546Z,1.43
2022-12-27T00:06:07.517Z,1.53
2022-12-27T00:09:19.533Z,1.27
2022-12-27T00:12:45.455Z,1.70
2022-12-27T00:15:57.494Z,1.90
2022-12-27T00:19:24.488Z,1.60
2022-12-27T00:22:24.493Z,1.70
2022-12-27T00:25:36.534Z,1.90
2022-12-27T00:28:50.535Z,1.73
2022-12-27T00:32:02.606Z,1.50
2022-12-27T00:35:05.610Z,1.90
2022-12-27T00:38:17.530Z,1.27
2022-12-27T00:41:29.604Z,1.17
2022-12-27T00:44:56.612Z,0.97
2022-12-27T00:47:56.591Z,2.00
2022-12-27T00:51:22.654Z,1.30
2022-12-27T00:54:34.752Z,1.70
2022-12-27T00:57:46.641Z,1.30
2022-12-27T01:00:59.632Z,1.97
2022-12-27T01:04:12.766Z,1.60
2022-12-27T01:07:12.655Z,1.07
2022-12-27T01:10:25.799Z,1.60
2022-12-27T01:13:25.629Z,1.50
2022-12-27T01:16:51.763Z,1.20
2022-12-27T01:19:54.791Z,1.53
2022-12-27T01:23:18.692Z,1.50
2022-12-27T01:26:30.694Z,1.90
2022-12-27T01:29:43.765Z,1.43
2022-12-27T01:32:58.753Z,1.50
2022-12-27T01:36:23.721Z,1.60
2022-12-27T01:39:35.752Z,1.90
2022-12-27T01:43:05.822Z,2.03
2022-12-27T01:46:17.869Z,2.00
2022-12-27T01:49:43.926Z,1.33
2022-12-27T01:52:55.818Z,1.90
2022-12-27T01:56:20.815Z,1.53
2022-12-27T01:59:32.895Z,1.77
2022-12-27T02:02:56.893Z,2.60
2022-12-27T02:06:22.898Z,1.87
2022-12-27T02:09:34.856Z,1.50
2022-12-27T02:12:46.851Z,1.87
2022-12-27T02:15:58.823Z,2.10
2022-12-27T02:19:10.879Z,2.00
2022-12-27T02:22:25.927Z,1.70
2022-12-27T02:25:42.051Z,2.00
2022-12-27T02:28:55.952Z,1.80
2022-12-27T02:32:21.955Z,2.20
2022-12-27T02:35:35.968Z,1.90
2022-12-27T02:39:00.974Z,2.10
2022-12-27T02:42:30.415Z,1.70
2022-12-27T02:46:00.455Z,2.17
2022-12-27T02:49:23.729Z,1.93
2022-12-27T02:52:54.495Z,2.10
2022-12-27T02:56:15.643Z,1.90
2022-12-27T02:59:41.979Z,2.10
2022-12-27T03:03:08.300Z,2.20
2022-12-27T03:06:55.004Z,2.13
2022-12-27T03:10:15.652Z,2.33
2022-12-27T03:13:46.581Z,1.80
2022-12-27T03:17:04.065Z,1.97
2022-12-27T03:20:33.644Z,2.00
2022-12-27T03:24:05.802Z,1.73
2022-12-27T03:27:30.077Z,2.03
2022-12-27T03:30:35.836Z,1.87
2022-12-27T03:34:00.120Z,1.55
2022-12-27T03:37:20.631Z,2.10
2022-12-27T03:40:48.161Z,1.80
2022-12-27T03:43:47.430Z,1.70
2022-12-27T03:47:13.186Z,1.80
2022-12-27T03:50:25.198Z,1.77
2022-12-27T03:53:50.123Z,2.20
2022-12-27T03:57:03.186Z,1.80
2022-12-27T04:00:29.198Z,1.70
2022-12-27T04:03:42.237Z,1.53
2022-12-27T04:06:42.210Z,2.40
2022-12-27T04:09:59.968Z,1.67
2022-12-27T04:13:20.041Z,1.90
2022-12-27T04:16:50.003Z,1.60
2022-12-27T04:19:56.011Z,2.00
2022-12-27T04:23:14.083Z,2.03
2022-12-27T04:26:20.029Z,2.47
2022-12-27T04:29:52.797Z,1.57
2022-12-27T04:32:59.165Z,1.70
2022-12-27T04:36:11.326Z,1.20
2022-12-27T04:39:23.296Z,1.63
2022-12-27T04:42:42.276Z,1.67
2022-12-27T04:46:01.005Z,1.80
2022-12-27T04:49:24.692Z,1.53
2022-12-27T04:52:44.079Z,1.70
2022-12-27T04:55:56.407Z,1.90
2022-12-27T04:58:57.350Z,2.27
2022-12-27T05:02:13.706Z,1.80
2022-12-27T05:05:16.437Z,1.40
2022-12-27T05:08:45.755Z,1.20
2022-12-27T05:11:52.558Z,1.97
2022-12-27T05:15:04.456Z,2.03
2022-12-27T05:18:18.492Z,1.75
2022-12-27T05:21:30.443Z,1.57
2022-12-27T05:24:36.300Z,2.00
2022-12-27T05:27:48.444Z,1.80
2022-12-27T05:31:00.546Z,1.67
2022-12-27T05:34:25.436Z,2.23
2022-12-27T05:37:25.532Z,1.90
2022-12-27T05:40:49.530Z,2.30
2022-12-27T05:43:49.458Z,2.00
2022-12-27T05:47:01.519Z,1.80
2022-12-27T05:50:14.558Z,1.60
2022-12-27T05:53:38.610Z,2.00
2022-12-27T05:56:38.579Z,1.70
2022-12-27T05:59:50.536Z,1.30
2022-12-27T06:03:00.556Z,1.93
2022-12-27T06:06:26.613Z,2.33
2022-12-27T06:09:38.583Z,2.10
2022-12-27T06:13:03.559Z,2.00
2022-12-27T06:16:03.653Z,1.60
2022-12-27T06:19:27.576Z,1.70
2022-12-27T06:22:44.629Z,1.90
2022-12-27T06:25:59.609Z,2.07
2022-12-27T06:29:11.697Z,1.80
2022-12-27T06:32:24.639Z,2.00
2022-12-27T06:35:24.690Z,2.10
2022-12-27T06:38:51.627Z,1.80
2022-12-27T06:41:51.651Z,1.47
2022-12-27T06:45:04.720Z,1.80
2022-12-27T06:48:04.760Z,1.47
2022-12-27T06:51:28.745Z,1.77
2022-12-27T06:54:41.761Z,2.30
2022-12-27T06:57:56.773Z,1.90
2022-12-27T07:00:56.700Z,2.20
2022-12-27T07:04:20.731Z,2.17
2022-12-27T07:07:20.843Z,1.73
2022-12-27T07:10:45.828Z,2.40
2022-12-27T07:13:57.823Z,2.30
2022-12-27T07:17:09.806Z,1.70
2022-12-27T07:20:09.783Z,1.70
2022-12-27T07:23:21.805Z,2.03
2022-12-27T07:26:35.752Z,2.03
2022-12-27T07:29:54.829Z,1.80
2022-12-27T07:32:54.891Z,1.83
2022-12-27T07:36:21.900Z,1.67
2022-12-27T07:39:33.970Z,1.80
2022-12-27T07:42:59.836Z,2.07
2022-12-27T07:46:02.936Z,2.00
2022-12-27T07:49:17.870Z,1.97
2022-12-27T07:52:14.865Z,1.90
2022-12-27T07:55:26.933Z,2.10
2022-12-27T07:58:52.951Z,2.10
2022-12-27T08:01:57.360Z,2.23
2022-12-27T08:05:08.970Z,2.00
2022-12-27T08:08:20.965Z,2.70
2022-12-27T08:11:44.934Z,2.13
2022-12-27T08:14:59.039Z,1.95
2022-12-27T08:18:12.002Z,1.83
2022-12-27T08:21:12.048Z,1.55
2022-12-27T08:24:23.981Z,1.97
2022-12-27T08:27:35.994Z,1.70
2022-12-27T08:31:02.081Z,2.23
2022-12-27T08:34:02.080Z,1.85
2022-12-27T08:37:18.003Z,1.70
2022-12-27T08:40:19.134Z,1.70
2022-12-27T08:43:43.044Z,2.30
2022-12-27T08:46:57.129Z,1.90
2022-12-27T08:50:09.067Z,2.13
2022-12-27T08:53:21.103Z,2.00
2022-12-27T08:56:34.113Z,2.33
2022-12-27T08:59:46.085Z,2.00
2022-12-27T09:03:15.179Z,2.70
2022-12-27T09:06:34.159Z,2.13
2022-12-27T09:09:47.179Z,2.23
2022-12-27T09:12:47.167Z,2.00
2022-12-27T09:15:59.196Z,1.97
2022-12-27T09:19:13.164Z,1.87
2022-12-27T09:22:25.153Z,2.40
2022-12-27T09:25:25.251Z,3.10
2022-12-27T09:28:37.239Z,3.23
2022-12-27T09:31:49.190Z,2.20
2022-12-27T09:35:14.258Z,2.20
2022-12-27T09:38:26.239Z,2.20
2022-12-27T09:45:06.251Z,2.07
2022-12-27T09:48:33.562Z,2.20
2022-12-27T09:51:46.292Z,2.13
2022-12-27T09:55:13.306Z,1.75
2022-12-27T09:58:27.320Z,2.40
2022-12-27T10:01:53.314Z,2.60
2022-12-27T10:05:21.910Z,1.87
2022-12-27T10:08:39.432Z,1.90
2022-12-27T10:12:03.538Z,2.40
2022-12-27T10:15:17.337Z,2.33
2022-12-27T10:18:43.400Z,2.40
2022-12-27T10:21:55.350Z,2.15
2022-12-27T10:25:21.375Z,2.40
2022-12-27T10:28:35.428Z,1.87
2022-12-27T10:31:59.367Z,2.67
2022-12-27T10:35:13.368Z,2.30
2022-12-27T10:38:25.387Z,2.05
2022-12-27T10:41:43.580Z,2.20
2022-12-27T10:45:08.436Z,2.90
2022-12-27T10:48:20.477Z,1.77
2022-12-27T10:51:46.456Z,2.20
2022-12-27T10:55:09.434Z,2.40
2022-12-27T10:58:45.505Z,2.50
2022-12-27T11:01:57.512Z,2.60
2022-12-27T11:05:21.528Z,1.70
2022-12-27T11:08:43.536Z,1.97
2022-12-27T11:11:55.567Z,2.00
2022-12-27T11:15:19.476Z,2.00
2022-12-27T11:18:46.496Z,1.80
2022-12-27T11:21:58.550Z,1.87
2022-12-27T11:25:22.540Z,2.13
2022-12-27T11:28:38.576Z,2.30
2022-12-27T11:32:04.569Z,2.37
2022-12-27T11:35:16.580Z,2.03
2022-12-27T11:38:42.624Z,1.90
2022-12-27T11:41:56.637Z,1.93
2022-12-27T11:45:22.620Z,2.13
2022-12-27T11:48:37.610Z,1.87
2022-12-27T11:52:09.631Z,2.10
2022-12-27T11:55:24.719Z,1.73
2022-12-27T11:58:58.619Z,2.40
2022-12-27T12:02:19.663Z,2.00
2022-12-27T12:05:58.672Z,1.87
2022-12-27T12:09:16.710Z,2.53
2022-12-27T12:12:44.737Z,2.37
2022-12-27T12:16:01.980Z,1.77
2022-12-27T12:19:32.668Z,1.85
2022-12-27T12:22:58.702Z,2.00
2022-12-27T12:26:26.690Z,1.90
2022-12-27T12:29:42.794Z,2.00
2022-12-27T12:33:11.751Z,2.50
2022-12-27T12:36:31.762Z,2.47
2022-12-27T12:39:59.808Z,2.27
2022-12-27T12:43:11.861Z,1.80
2022-12-27T12:46:38.772Z,3.03
2022-12-27T12:50:13.970Z,2.70
2022-12-27T12:53:42.881Z,2.37
2022-12-27T12:56:58.826Z,2.20
2022-12-27T13:00:41.847Z,3.15
2022-12-27T13:04:05.848Z,2.70
2022-12-27T13:07:39.680Z,3.70
2022-12-27T13:10:55.934Z,3.83
2022-12-27T13:14:24.921Z,2.73
2022-12-27T13:17:38.915Z,3.70
2022-12-27T13:21:08.872Z,4.60
2022-12-27T13:24:29.530Z,2.40
2022-12-27T13:27:49.905Z,3.63
2022-12-27T13:31:04.062Z,3.93
2022-12-27T13:34:29.966Z,4.20
2022-12-27T13:37:45.019Z,3.80
2022-12-27T13:41:14.958Z,4.10
2022-12-27T13:44:32.960Z,4.63
2022-12-27T13:48:06.972Z,5.53
2022-12-27T13:51:22.009Z,4.50
2022-12-27T13:55:04.991Z,3.97
2022-12-27T13:58:25.064Z,3.90
2022-12-27T14:02:11.238Z,4.93
2022-12-27T14:05:42.052Z,4.60
2022-12-27T14:08:59.064Z,4.50
2022-12-27T14:12:28.121Z,5.60
2022-12-27T14:15:43.188Z,4.00
2022-12-27T14:19:09.136Z,4.45
2022-12-27T14:22:24.092Z,4.70
2022-12-27T14:25:53.143Z,4.87
2022-12-27T14:29:12.147Z,5.40
2022-12-27T14:32:41.160Z,5.83
2022-12-27T14:35:55.157Z,5.37
2022-12-27T14:39:22.211Z,5.30
2022-12-27T14:42:42.177Z,5.20
2022-12-27T14:46:25.245Z,5.65
2022-12-27T14:49:41.165Z,6.03
2022-12-27T14:53:11.232Z,5.70
2022-12-27T14:56:29.239Z,5.07
2022-12-27T14:59:55.198Z,4.55
2022-12-27T15:03:20.261Z,4.55
2022-12-27T15:06:50.228Z,4.25
2022-12-27T15:10:02.257Z,5.57
2022-12-27T15:13:26.215Z,4.90
2022-12-27T15:16:38.284Z,5.47
2022-12-27T15:20:07.334Z,5.23
2022-12-27T15:23:24.237Z,4.85
2022-12-27T15:26:52.350Z,5.37
2022-12-27T15:30:07.337Z,4.70
2022-12-27T15:33:32.287Z,4.73
2022-12-27T15:36:48.353Z,5.00
2022-12-27T15:40:13.341Z,5.50
2022-12-27T15:43:25.406Z,4.40
2022-12-27T15:47:05.576Z,4.83
2022-12-27T15:50:24.393Z,4.53
2022-12-27T15:53:55.405Z,4.00
2022-12-27T15:57:14.448Z,4.30
2022-12-27T16:00:39.410Z,4.63
2022-12-27T16:04:03.519Z,4.70
2022-12-27T16:07:15.421Z,4.90
2022-12-27T16:11:00.410Z,3.73
2022-12-27T16:14:13.454Z,3.57
2022-12-27T16:17:49.437Z,3.83
2022-12-27T16:21:01.496Z,4.13
2022-12-27T16:24:25.439Z,4.25
2022-12-27T16:27:44.534Z,3.10
2022-12-27T16:31:12.596Z,3.77
2022-12-27T16:34:24.561Z,3.47
2022-12-27T16:37:49.567Z,3.67
2022-12-27T16:41:02.546Z,3.80
2022-12-27T16:44:37.865Z,3.33
2022-12-27T16:47:53.635Z,3.53
2022-12-27T16:51:20.519Z,3.63
2022-12-27T16:54:39.598Z,3.33
2022-12-27T16:58:05.606Z,3.27
2022-12-27T17:01:19.650Z,3.47
2022-12-27T17:04:51.641Z,3.07
2022-12-27T17:08:13.687Z,3.50
2022-12-27T17:11:50.587Z,3.00
2022-12-27T17:15:02.720Z,3.13
2022-12-27T17:18:29.639Z,2.83
2022-12-27T17:21:42.637Z,2.77
2022-12-27T17:25:07.681Z,2.73
2022-12-27T17:28:24.702Z,3.23
2022-12-27T17:31:48.800Z,2.40
2022-12-27T17:35:02.710Z,3.00
2022-12-27T17:38:29.744Z,3.37
2022-12-27T17:41:44.761Z,3.10
2022-12-27T17:45:14.711Z,2.87
2022-12-27T17:48:28.716Z,2.60
2022-12-27T17:51:55.726Z,2.83
2022-12-27T17:55:01.814Z,3.03
2022-12-27T17:58:26.812Z,3.00
2022-12-27T18:01:38.785Z,2.63
2022-12-27T18:05:02.828Z,2.83
2022-12-27T18:08:15.816Z,2.83
2022-12-27T18:11:42.793Z,3.00
2022-12-27T18:14:55.779Z,3.10
2022-12-27T18:18:19.873Z,3.13
2022-12-27T18:21:19.795Z,2.47
2022-12-27T18:24:48.885Z,3.63
2022-12-27T18:27:48.972Z,3.50
2022-12-27T18:31:12.943Z,3.03
2022-12-27T18:34:27.882Z,2.73
2022-12-27T18:37:51.953Z,2.90
2022-12-27T18:40:53.195Z,3.20
2022-12-27T18:44:21.441Z,2.60
2022-12-27T18:47:28.909Z,2.93
2022-12-27T18:50:53.951Z,3.27
2022-12-27T18:53:56.958Z,2.90
2022-12-27T18:57:22.970Z,3.13
2022-12-27T19:00:38.988Z,2.27
2022-12-27T19:03:52.003Z,2.55
2022-12-27T19:07:04.000Z,2.50
2022-12-27T19:10:27.965Z,2.57
2022-12-27T19:13:45.996Z,2.70
2022-12-27T19:17:13.000Z,2.63
2022-12-27T19:20:25.025Z,2.73
2022-12-27T19:23:50.007Z,2.20
2022-12-27T19:26:53.019Z,2.30
2022-12-27T19:30:20.059Z,2.30
2022-12-27T19:33:33.111Z,2.10
2022-12-27T19:36:58.016Z,2.57
2022-12-27T19:40:10.051Z,2.25
2022-12-27T19:43:34.127Z,1.80
2022-12-27T19:46:48.105Z,2.83
2022-12-27T19:50:01.133Z,2.60
2022-12-27T19:53:13.145Z,2.37
2022-12-27T19:56:25.212Z,2.70
2022-12-27T19:59:39.146Z,2.27
2022-12-27T20:03:05.277Z,2.20
2022-12-27T20:06:30.284Z,2.00
2022-12-27T20:09:54.151Z,2.00
2022-12-27T20:13:06.160Z,2.43
2022-12-27T20:16:18.308Z,2.43
2022-12-27T20:19:44.252Z,2.27
2022-12-27T20:22:44.207Z,2.23
2022-12-27T20:26:08.294Z,2.40
2022-12-27T20:29:08.246Z,2.10
2022-12-27T20:32:21.293Z,2.20
2022-12-27T20:35:35.288Z,2.60
2022-12-27T20:38:59.275Z,2.20
2022-12-27T20:42:11.316Z,1.75
2022-12-27T20:45:36.265Z,2.70
2022-12-27T20:48:36.241Z,2.07
2022-12-27T20:52:02.307Z,3.10
2022-12-27T20:55:02.274Z,2.27
2022-12-27T20:58:27.304Z,2.47
2022-12-27T21:01:39.349Z,2.53
2022-12-27T21:04:51.371Z,2.15
2022-12-27T21:08:08.272Z,2.23
2022-12-27T21:11:33.350Z,2.37
2022-12-27T21:14:33.365Z,1.90
2022-12-27T21:17:45.410Z,2.80
2022-12-27T21:20:45.390Z,2.33
2022-12-27T21:24:11.449Z,1.90
2022-12-27T21:27:23.376Z,2.13
2022-12-27T21:30:36.434Z,2.00
2022-12-27T21:33:51.424Z,1.63
2022-12-27T21:37:16.518Z,2.33
2022-12-27T21:40:35.484Z,1.93
2022-12-27T21:43:53.460Z,2.23
2022-12-27T21:47:05.450Z,2.13
2022-12-27T21:50:21.471Z,1.90
2022-12-27T21:53:21.495Z,2.33
2022-12-27T21:56:47.536Z,2.20
2022-12-27T21:59:50.530Z,2.07
2022-12-27T22:02:53.781Z,2.10
2022-12-27T22:06:05.647Z,2.20
2022-12-27T22:09:17.604Z,2.07
2022-12-27T22:12:42.576Z,2.23
2022-12-27T22:15:42.614Z,1.90
2022-12-27T22:19:08.609Z,1.90
2022-12-27T22:22:08.588Z,1.95
2022-12-27T22:25:33.568Z,3.27
2022-12-27T22:28:47.563Z,2.00
2022-12-27T22:32:02.624Z,2.37
2022-12-27T22:35:02.652Z,2.10
2022-12-27T22:38:27.668Z,2.13
2022-12-27T22:41:45.654Z,2.13
2022-12-27T22:45:12.683Z,2.00
2022-12-27T22:48:12.722Z,1.90
2022-12-27T22:51:40.677Z,2.20
2022-12-27T22:55:02.917Z,1.97
2022-12-27T22:58:05.661Z,1.70
2022-12-27T23:01:19.789Z,1.80
2022-12-27T23:04:34.756Z,2.10
2022-12-27T23:08:04.524Z,2.07
2022-12-27T23:10:53.707Z,1.90
2022-12-27T23:13:53.776Z,2.00
2022-12-27T23:17:18.779Z,1.90
2022-12-27T23:20:19.806Z,1.97
2022-12-27T23:23:31.739Z,2.20
2022-12-27T23:26:44.819Z,2.20
2022-12-27T23:29:56.788Z,2.75
2022-12-27T23:33:10.937Z,2.27
2022-12-27T23:36:34.783Z,2.20
2022-12-27T23:39:37.839Z,2.00
2022-12-27T23:42:49.867Z,2.07
2022-12-27T23:45:49.818Z,1.80
2022-12-27T23:49:18.820Z,2.20
2022-12-27T23:52:18.879Z,1.70
2022-12-27T23:55:32.853Z,1.67
2022-12-27T23:58:32.861Z,2.00
